Time;durP1;ratioP1;P1;durP2;ratioP2;P2;SDS_P1;SDS_P2;PMS_P1;PMS_P2;Temp;Humidity;BMP_temperature;BMP_pressure;BME280_temperature;BME280_humidity;BME280_pressure;Samples;Min_cycle;Max_cycle;Signal;HPM_P1;HPM_P2
2022/05/11 00:00:39;;;;;;;18.05;10.43;;;14.40;99.90;;;;;;5033795;28;20463;-73
2022/05/11 00:03:05;;;;;;;15.93;10.95;;;14.40;99.90;;;;;;5032030;28;20409;-72
2022/05/11 00:05:32;;;;;;;19.45;10.80;;;14.40;99.90;;;;;;5033011;28;20091;-75
2022/05/11 00:07:58;;;;;;;16.65;11.05;;;14.40;99.90;;;;;;5033848;28;20127;-73
2022/05/11 00:10:25;;;;;;;18.15;10.73;;;14.40;99.90;;;;;;5016413;28;20029;-73
2022/05/11 00:12:51;;;;;;;15.50;10.10;;;14.40;99.90;;;;;;5018423;28;20496;-73
2022/05/11 00:15:20;;;;;;;16.60;10.68;;;14.40;99.90;;;;;;5017350;28;20060;-73
2022/05/11 00:17:45;;;;;;;14.02;9.50;;;14.40;99.90;;;;;;4998570;28;20586;-75
2022/05/11 00:20:12;;;;;;;13.40;9.63;;;14.40;99.90;;;;;;4998637;28;20033;-72
2022/05/11 00:22:38;;;;;;;13.88;9.50;;;14.40;99.90;;;;;;5034192;28;20062;-76
2022/05/11 00:25:06;;;;;;;16.83;11.35;;;14.40;99.90;;;;;;5035229;28;20037;-73
2022/05/11 00:27:34;;;;;;;14.68;9.77;;;14.30;99.90;;;;;;5032110;28;20527;-75
2022/05/11 00:30:02;;;;;;;18.70;10.55;;;14.30;99.90;;;;;;5015945;28;20085;-78
2022/05/11 00:32:28;;;;;;;16.50;11.07;;;14.30;99.90;;;;;;5023044;28;20021;-74
2022/05/11 00:34:54;;;;;;;16.25;9.77;;;14.30;99.90;;;;;;5016105;28;20051;-76
2022/05/11 00:37:20;;;;;;;15.60;9.82;;;14.30;99.90;;;;;;5029598;28;20021;-75
2022/05/11 00:39:47;;;;;;;15.98;10.45;;;14.40;99.90;;;;;;5015746;28;20048;-77
2022/05/11 00:42:14;;;;;;;16.83;10.63;;;14.40;99.90;;;;;;5017280;28;20036;-74
2022/05/11 00:44:39;;;;;;;17.30;10.63;;;14.40;99.90;;;;;;5013472;28;20025;-76
2022/05/11 00:47:23;;;;;;;14.50;10.98;;;14.40;99.90;;;;;;5003359;28;20439;-73
2022/05/11 00:49:53;;;;;;;16.85;10.23;;;14.40;99.90;;;;;;5015181;28;20033;-73
2022/05/11 00:52:41;;;;;;;14.73;10.15;;;14.40;99.90;;;;;;5014142;28;20033;-76
2022/05/11 00:55:30;;;;;;;13.10;10.30;;;14.40;99.90;;;;;;5012088;28;20037;-73
2022/05/11 00:58:02;;;;;;;15.57;10.50;;;14.40;99.90;;;;;;5016355;28;20060;-73
2022/05/11 01:00:28;;;;;;;15.25;9.88;;;14.40;99.90;;;;;;5014267;28;20025;-73
2022/05/11 01:03:09;;;;;;;13.93;10.27;;;14.30;99.90;;;;;;5000271;28;20083;-73
2022/05/11 01:05:34;;;;;;;16.42;10.63;;;14.30;99.90;;;;;;5010339;28;20535;-76
2022/05/11 01:08:01;;;;;;;14.20;10.30;;;14.30;99.90;;;;;;5028409;28;20034;-77
2022/05/11 01:10:29;;;;;;;16.08;10.57;;;14.40;99.90;;;;;;5014538;28;20022;-74
2022/05/11 01:12:58;;;;;;;13.07;8.80;;;14.40;99.90;;;;;;5035902;28;20408;-76
2022/05/11 01:15:25;;;;;;;15.55;8.95;;;14.40;99.90;;;;;;5011754;28;20037;-76
2022/05/11 01:17:52;;;;;;;15.23;10.23;;;14.40;99.90;;;;;;5013174;28;20033;-74
2022/05/11 01:20:21;;;;;;;14.98;9.65;;;14.30;99.90;;;;;;5017996;28;20413;-73
2022/05/11 01:23:25;;;;;;;15.55;9.38;;;14.30;99.90;;;;;;5013038;28;20041;-76
2022/05/11 01:25:50;;;;;;;15.27;10.18;;;14.30;99.90;;;;;;5012438;28;20117;-73
2022/05/11 01:28:17;;;;;;;14.05;9.60;;;14.30;99.90;;;;;;5011517;28;20175;-74
2022/05/11 01:30:48;;;;;;;16.38;9.93;;;14.30;99.90;;;;;;5013190;28;20034;-74
2022/05/11 01:33:18;;;;;;;12.77;10.00;;;14.30;99.90;;;;;;5036351;28;20032;-73
2022/05/11 01:36:18;;;;;;;13.30;9.27;;;14.20;99.90;;;;;;5032330;28;20032;-73
2022/05/11 01:38:47;;;;;;;16.35;10.15;;;14.20;99.90;;;;;;5034043;28;20025;-77
2022/05/11 01:41:26;;;;;;;13.02;9.50;;;14.20;99.90;;;;;;5010942;28;20393;-76
2022/05/11 01:43:52;;;;;;;13.60;9.60;;;14.30;99.90;;;;;;5013289;28;20108;-73
2022/05/11 01:46:19;;;;;;;12.40;9.57;;;14.30;99.90;;;;;;5031661;28;20064;-76
2022/05/11 01:48:45;;;;;;;13.40;10.15;;;14.20;99.90;;;;;;5017292;28;20036;-73
2022/05/11 01:51:16;;;;;;;15.82;9.57;;;14.30;99.90;;;;;;5028737;28;20045;-77
2022/05/11 01:53:43;;;;;;;12.68;9.43;;;14.30;99.90;;;;;;5013213;28;20026;-73
2022/05/11 01:56:09;;;;;;;14.50;9.43;;;14.30;99.90;;;;;;5012133;28;20136;-75
2022/05/11 01:58:36;;;;;;;14.65;9.80;;;14.30;99.90;;;;;;5033303;28;20029;-76
2022/05/11 02:01:03;;;;;;;14.50;10.10;;;14.30;99.90;;;;;;5034437;28;20026;-73
2022/05/11 02:03:29;;;;;;;14.55;9.18;;;14.30;99.90;;;;;;5034462;28;20044;-74
2022/05/11 02:08:43;;;;;;;12.40;9.23;;;14.30;99.90;;;;;;5016674;28;20378;-74
2022/05/11 02:11:10;;;;;;;15.45;9.48;;;14.30;99.90;;;;;;5033370;28;20091;-75
2022/05/11 02:13:36;;;;;;;15.90;9.20;;;14.30;99.90;;;;;;5033535;28;20116;-76
2022/05/11 02:16:02;;;;;;;13.55;10.15;;;14.30;99.90;;;;;;5035151;28;20144;-73
2022/05/11 02:18:29;;;;;;;13.35;9.40;;;14.20;99.90;;;;;;5004245;28;20477;-73
2022/05/11 02:20:55;;;;;;;16.15;9.95;;;14.30;99.90;;;;;;5036889;28;20160;-73
2022/05/11 02:23:23;;;;;;;12.43;9.98;;;14.30;99.90;;;;;;5019378;28;20124;-73
2022/05/11 02:25:50;;;;;;;15.55;10.07;;;14.30;99.90;;;;;;5016482;28;20040;-73
2022/05/11 02:28:17;;;;;;;15.95;9.23;;;14.30;99.90;;;;;;5016960;28;20045;-73
2022/05/11 02:30:45;;;;;;;14.45;9.90;;;14.20;99.90;;;;;;5014281;28;20072;-73
2022/05/11 02:33:12;;;;;;;12.98;9.90;;;14.30;99.90;;;;;;5040719;28;20022;-73
2022/05/11 02:35:39;;;;;;;13.13;9.68;;;14.30;99.90;;;;;;5014056;28;20602;-73
2022/05/11 02:38:15;;;;;;;14.05;9.73;;;14.20;99.90;;;;;;5035596;28;20397;-73
2022/05/11 02:40:42;;;;;;;14.38;9.27;;;14.20;99.90;;;;;;5032969;28;20049;-73
2022/05/11 02:43:11;;;;;;;12.35;8.80;;;14.20;99.90;;;;;;5019771;28;20097;-75
2022/05/11 02:45:41;;;;;;;16.50;10.40;;;14.20;99.90;;;;;;5015871;28;20505;-73
2022/05/11 02:48:08;;;;;;;16.10;9.85;;;14.20;99.90;;;;;;5018521;28;20120;-73
2022/05/11 02:50:41;;;;;;;14.05;9.90;;;14.20;99.90;;;;;;5034580;28;20067;-78
2022/05/11 02:53:08;;;;;;;13.65;9.98;;;14.20;99.90;;;;;;5018540;28;20505;-73
2022/05/11 02:55:38;;;;;;;14.60;9.98;;;14.20;99.90;;;;;;5017156;28;20033;-73
2022/05/11 02:58:05;;;;;;;13.38;9.13;;;14.20;99.90;;;;;;5019206;28;20121;-73
2022/05/11 03:00:31;;;;;;;11.93;9.70;;;14.20;99.90;;;;;;5018321;28;20035;-73
2022/05/11 03:02:59;;;;;;;13.93;9.45;;;14.20;99.90;;;;;;5017606;28;20038;-73
2022/05/11 03:05:24;;;;;;;13.30;9.80;;;14.30;99.90;;;;;;5018039;28;20029;-73
2022/05/11 03:07:50;;;;;;;15.27;10.75;;;14.30;99.90;;;;;;5034289;28;20108;-75
2022/05/11 03:10:16;;;;;;;13.40;9.35;;;14.20;99.90;;;;;;5040019;28;20079;-76
2022/05/11 03:12:42;;;;;;;12.18;9.15;;;14.20;99.90;;;;;;5016393;28;20044;-73
2022/05/11 03:15:08;;;;;;;13.65;9.88;;;14.20;99.90;;;;;;5018568;28;20112;-75
2022/05/11 03:17:35;;;;;;;13.07;9.52;;;14.20;99.90;;;;;;5015106;28;20060;-76
2022/05/11 03:20:04;;;;;;;12.02;9.02;;;14.20;99.90;;;;;;5005274;28;20080;-72
2022/05/11 03:22:29;;;;;;;13.63;9.50;;;14.20;99.90;;;;;;5015209;28;20032;-73
2022/05/11 03:24:55;;;;;;;12.73;9.68;;;14.20;99.90;;;;;;5016848;28;20049;-73
2022/05/11 03:27:21;;;;;;;10.90;9.07;;;14.20;99.90;;;;;;5033736;28;20118;-75
2022/05/11 03:29:47;;;;;;;12.45;9.45;;;14.20;99.90;;;;;;5002536;28;20509;-73
2022/05/11 03:34:58;;;;;;;16.40;9.57;;;14.20;99.90;;;;;;5016531;28;20108;-75
2022/05/11 03:37:24;;;;;;;13.43;9.02;;;14.20;99.90;;;;;;5038092;28;20133;-77
2022/05/11 03:39:49;;;;;;;13.93;10.32;;;14.20;99.90;;;;;;5016203;28;20079;-73
2022/05/11 03:42:18;;;;;;;14.82;9.60;;;14.20;99.90;;;;;;5016156;28;20501;-75
2022/05/11 03:44:44;;;;;;;15.20;9.25;;;14.20;99.90;;;;;;5014477;28;20037;-75
2022/05/11 03:47:10;;;;;;;11.48;9.35;;;14.20;99.90;;;;;;5002243;28;20037;-75
2022/05/11 03:49:36;;;;;;;9.80;8.45;;;14.20;99.90;;;;;;5020317;28;20029;-75
2022/05/11 03:52:03;;;;;;;12.88;9.50;;;14.20;99.90;;;;;;5002120;28;20677;-74
2022/05/11 03:54:29;;;;;;;12.55;9.27;;;14.20;99.90;;;;;;5017644;28;20048;-73
2022/05/11 03:56:54;;;;;;;12.00;8.48;;;14.20;99.90;;;;;;5017716;28;20044;-75
2022/05/11 03:59:20;;;;;;;12.38;8.90;;;14.20;99.90;;;;;;5014218;28;20044;-75
2022/05/11 04:01:45;;;;;;;14.35;8.73;;;14.20;99.90;;;;;;5033413;28;20036;-73
2022/05/11 04:04:12;;;;;;;15.13;9.38;;;14.20;99.90;;;;;;5020308;28;20056;-74
2022/05/11 04:06:38;;;;;;;10.55;8.50;;;14.30;99.90;;;;;;5034351;28;20041;-76
2022/05/11 04:09:03;;;;;;;14.25;9.55;;;14.30;99.90;;;;;;5032375;28;20051;-75
2022/05/11 04:11:29;;;;;;;14.63;9.05;;;14.30;99.90;;;;;;5020340;28;20029;-73
2022/05/11 04:13:56;;;;;;;13.27;9.40;;;14.30;99.90;;;;;;5033032;28;20112;-74
2022/05/11 04:16:22;;;;;;;12.45;9.23;;;14.30;99.90;;;;;;5020633;28;20100;-76
2022/05/11 04:18:48;;;;;;;15.88;10.18;;;14.30;99.90;;;;;;5036272;28;20147;-72
2022/05/11 04:21:14;;;;;;;14.52;9.85;;;14.30;99.90;;;;;;5000713;28;20137;-72
2022/05/11 04:23:41;;;;;;;10.98;8.98;;;14.30;99.90;;;;;;5038591;28;20092;-75
2022/05/11 04:26:12;;;;;;;12.63;9.73;;;14.30;99.90;;;;;;5032412;28;20059;-76
2022/05/11 04:28:39;;;;;;;;;;;14.30;99.90;;;;;;5035954;28;20072;-73
2022/05/11 04:31:10;;;;;;;12.27;8.80;;;14.30;99.90;;;;;;5033835;28;19923;-73
2022/05/11 04:33:36;;;;;;;13.68;9.40;;;14.40;99.90;;;;;;5033668;28;20148;-74
2022/05/11 04:36:03;;;;;;;14.35;9.25;;;14.40;99.90;;;;;;5014287;28;20091;-73
2022/05/11 04:38:29;;;;;;;13.05;8.88;;;14.40;99.90;;;;;;5034973;28;20036;-73
2022/05/11 04:40:55;;;;;;;11.18;8.85;;;14.40;99.90;;;;;;5032035;28;20396;-73
2022/05/11 04:43:22;;;;;;;14.85;10.23;;;14.50;99.90;;;;;;5030952;28;20127;-73
2022/05/11 04:45:48;;;;;;;12.13;8.95;;;14.50;99.90;;;;;;5033386;28;20516;-73
2022/05/11 04:48:16;;;;;;;15.77;10.48;;;14.40;99.90;;;;;;5015911;28;20037;-73
2022/05/11 04:50:43;;;;;;;13.05;9.02;;;14.40;99.90;;;;;;5011018;28;20125;-73
2022/05/11 04:53:10;;;;;;;13.18;9.73;;;14.50;99.90;;;;;;5033094;28;20029;-74
2022/05/11 04:55:36;;;;;;;13.32;9.75;;;14.40;99.90;;;;;;5010800;28;20111;-74
2022/05/11 04:58:04;;;;;;;11.65;9.02;;;14.50;99.90;;;;;;5001318;28;20036;-74
2022/05/11 05:00:32;;;;;;;13.98;8.85;;;14.40;99.90;;;;;;5014381;28;20083;-73
2022/05/11 05:03:00;;;;;;;16.17;10.10;;;14.50;99.90;;;;;;5011748;28;20041;-74
2022/05/11 05:05:26;;;;;;;16.33;9.57;;;14.50;99.90;;;;;;5032707;28;20028;-73
2022/05/11 05:07:53;;;;;;;13.00;9.27;;;14.60;99.90;;;;;;5004331;28;20021;-75
2022/05/11 05:10:21;;;;;;;13.40;9.85;;;14.70;99.90;;;;;;5018930;28;20109;-75
2022/05/11 05:12:47;;;;;;;15.55;9.30;;;14.70;99.90;;;;;;5028931;28;20063;-74
2022/05/11 05:15:16;;;;;;;13.48;10.45;;;14.70;99.90;;;;;;5014657;28;20038;-75
2022/05/11 05:17:43;;;;;;;13.00;10.05;;;14.80;99.90;;;;;;5026946;28;20025;-77
2022/05/11 05:20:12;;;;;;;14.48;10.75;;;14.70;99.90;;;;;;5012731;28;20037;-74
2022/05/11 05:22:38;;;;;;;12.43;9.40;;;14.80;99.90;;;;;;5017406;28;20033;-75
2022/05/11 05:25:05;;;;;;;13.00;10.35;;;14.90;99.90;;;;;;5014197;28;20040;-73
2022/05/11 05:27:31;;;;;;;14.70;10.85;;;14.90;99.90;;;;;;5029434;28;20172;-75
2022/05/11 05:32:43;;;;;;;15.20;11.57;;;15.00;99.90;;;;;;5031345;28;20494;-76
2022/05/11 05:35:12;;;;;;;17.60;11.30;;;15.00;99.90;;;;;;5013363;28;20060;-76
2022/05/11 05:37:38;;;;;;;16.00;11.50;;;15.00;99.90;;;;;;5031619;28;20033;-74
2022/05/11 05:40:05;;;;;;;14.10;11.57;;;15.10;99.90;;;;;;5030837;28;20032;-78
2022/05/11 05:42:32;;;;;;;14.30;10.80;;;15.10;99.90;;;;;;5015512;28;20029;-73
2022/05/11 05:44:58;;;;;;;13.73;10.82;;;15.10;99.90;;;;;;5000813;28;20071;-74
2022/05/11 05:47:24;;;;;;;15.90;10.15;;;15.20;99.90;;;;;;5016127;28;20115;-71
2022/05/11 05:49:49;;;;;;;14.27;10.50;;;15.20;99.90;;;;;;5019566;28;20029;-71
2022/05/11 05:52:21;;;;;;;13.43;10.90;;;15.10;99.90;;;;;;5021341;28;20111;-71
2022/05/11 05:54:48;;;;;;;14.07;11.25;;;15.10;99.90;;;;;;5037688;28;20029;-71
2022/05/11 05:57:14;;;;;;;15.80;10.27;;;15.10;99.90;;;;;;5020984;28;20071;-71
2022/05/11 05:59:41;;;;;;;13.50;10.63;;;15.10;99.90;;;;;;5039189;28;20028;-71
2022/05/11 06:02:12;;;;;;;16.02;10.73;;;15.00;99.90;;;;;;5032477;28;20035;-71
2022/05/11 06:04:49;;;;;;;17.70;12.25;;;15.00;99.90;;;;;;5035855;28;20056;-74
2022/05/11 06:07:16;;;;;;;18.27;12.60;;;15.00;99.90;;;;;;5013319;28;20021;-74
2022/05/11 06:09:41;;;;;;;15.40;10.80;;;14.90;99.90;;;;;;4998779;28;20185;-71
2022/05/11 06:12:11;;;;;;;15.25;10.02;;;14.90;99.90;;;;;;5032395;28;20509;-71
2022/05/11 06:14:38;;;;;;;17.65;10.95;;;15.00;99.90;;;;;;5014467;28;20037;-74
2022/05/11 06:17:11;;;;;;;21.23;11.70;;;15.00;99.90;;;;;;5031463;28;20108;-74
2022/05/11 06:19:39;;;;;;;18.33;11.30;;;15.00;99.90;;;;;;5002811;28;20073;-75
2022/05/11 06:22:05;;;;;;;15.20;10.23;;;15.00;99.90;;;;;;5021033;28;20436;-74
2022/05/11 06:24:30;;;;;;;15.43;10.80;;;15.00;99.90;;;;;;5014503;28;20025;-74
2022/05/11 06:26:56;;;;;;;15.20;10.65;;;15.00;99.90;;;;;;5022952;28;20104;-75
2022/05/11 06:29:22;;;;;;;17.48;10.93;;;15.00;99.90;;;;;;5040946;28;20041;-75
2022/05/11 06:31:48;;;;;;;19.95;11.98;;;15.10;99.90;;;;;;5003306;28;20132;-74
2022/05/11 06:34:15;;;;;;;18.67;12.40;;;15.10;99.90;;;;;;5037876;28;20104;-71
2022/05/11 06:36:42;;;;;;;16.13;12.30;;;15.10;99.90;;;;;;5017269;28;20025;-71
2022/05/11 06:39:08;;;;;;;15.65;11.88;;;15.10;99.90;;;;;;5019465;28;20128;-71
2022/05/11 06:41:34;;;;;;;16.10;11.35;;;15.10;99.90;;;;;;5000514;28;20037;-71
2022/05/11 06:44:00;;;;;;;19.13;13.10;;;15.20;99.90;;;;;;5034396;28;20103;-72
2022/05/11 06:46:26;;;;;;;21.63;12.90;;;15.20;99.90;;;;;;4997121;28;20037;-71
2022/05/11 06:48:52;;;;;;;17.85;13.07;;;15.20;99.90;;;;;;5035034;28;20501;-71
2022/05/11 06:51:19;;;;;;;14.82;11.20;;;15.20;99.90;;;;;;5017458;28;20034;-71
2022/05/11 06:59:20;;;;;;;12.75;10.23;;;15.40;99.90;;;;;;5034089;28;21062;-72
2022/05/11 07:01:54;;;;;;;13.80;11.00;;;15.60;99.90;;;;;;5038974;28;20400;-72
2022/05/11 07:04:23;;;;;;;14.82;10.05;;;15.70;99.90;;;;;;5012886;28;20029;-71
2022/05/11 07:06:52;;;;;;;13.90;9.73;;;15.60;99.90;;;;;;5001158;28;20364;-72
2022/05/11 07:09:18;;;;;;;17.60;10.07;;;15.60;99.90;;;;;;5007030;28;20033;-71
2022/05/11 07:14:28;;;;;;;9.98;8.13;;;15.60;99.90;;;;;;5035491;28;20481;-71
2022/05/11 07:16:55;;;;;;;10.88;8.27;;;15.50;99.90;;;;;;5037380;28;20110;-71
2022/05/11 07:19:23;;;;;;;11.25;8.13;;;15.50;99.90;;;;;;5036881;28;20057;-71
2022/05/11 07:21:50;;;;;;;12.52;8.65;;;15.50;99.90;;;;;;5036682;28;20030;-71
2022/05/11 07:24:15;;;;;;;13.75;8.35;;;15.50;99.90;;;;;;5036041;28;20490;-72
2022/05/11 07:26:42;;;;;;;12.82;8.70;;;15.50;99.90;;;;;;5035508;28;20474;-71
2022/05/11 07:29:08;;;;;;;11.23;7.70;;;15.50;99.90;;;;;;4998991;28;20025;-71
2022/05/11 07:31:33;;;;;;;11.20;8.13;;;15.50;99.90;;;;;;5013112;28;20029;-75
2022/05/11 07:33:59;;;;;;;12.23;8.02;;;15.50;99.90;;;;;;5000540;28;20041;-75
2022/05/11 07:36:25;;;;;;;10.30;7.68;;;15.50;99.90;;;;;;5012860;28;20462;-75
2022/05/11 07:38:55;;;;;;;11.18;7.72;;;15.60;99.90;;;;;;5001276;28;20163;-75
2022/05/11 07:41:20;;;;;;;13.10;8.93;;;15.60;99.90;;;;;;5019255;28;20040;-75
2022/05/11 07:43:46;;;;;;;15.95;8.63;;;15.60;99.90;;;;;;5020299;28;20119;-77
2022/05/11 07:46:12;;;;;;;10.93;7.88;;;15.60;99.90;;;;;;5012113;28;20029;-75
2022/05/11 07:48:37;;;;;;;12.65;8.10;;;15.60;99.90;;;;;;4997291;28;20043;-75
2022/05/11 07:51:03;;;;;;;11.02;7.63;;;15.60;99.90;;;;;;5014088;28;20147;-75
2022/05/11 07:53:30;;;;;;;12.25;7.72;;;15.60;99.90;;;;;;5017906;28;20137;-75
2022/05/11 08:01:25;;;;;;;10.38;8.02;;;15.60;99.90;;;;;;5033331;28;20032;-75
2022/05/11 08:03:50;;;;;;;11.27;7.90;;;15.60;99.90;;;;;;5007409;28;20045;-76
2022/05/11 08:06:17;;;;;;;11.45;8.13;;;15.60;99.90;;;;;;4998748;28;20035;-76
2022/05/11 08:08:43;;;;;;;9.25;7.53;;;15.60;99.90;;;;;;5026171;28;20049;-76
2022/05/11 08:11:09;;;;;;;11.07;7.97;;;15.60;99.90;;;;;;5002704;28;20606;-75
2022/05/11 08:13:34;;;;;;;11.55;7.68;;;15.70;99.90;;;;;;5038241;28;20033;-75
2022/05/11 08:16:01;;;;;;;13.18;9.63;;;15.80;99.90;;;;;;5012524;28;20025;-75
2022/05/11 08:18:30;;;;;;;13.98;8.38;;;15.60;99.90;;;;;;5011135;28;20036;-76
2022/05/11 08:20:56;;;;;;;10.82;8.07;;;15.80;99.90;;;;;;5030246;28;20489;-75
2022/05/11 08:23:22;;;;;;;10.57;7.88;;;15.80;99.90;;;;;;5035508;28;20044;-73
2022/05/11 08:25:50;;;;;;;13.75;8.77;;;15.80;99.90;;;;;;5030902;28;20033;-72
2022/05/11 08:28:21;;;;;;;12.25;8.20;;;15.80;99.90;;;;;;5017371;28;20112;-72
2022/05/11 08:33:38;;;;;;;10.20;7.55;;;15.90;99.90;;;;;;5035362;28;20034;-72
2022/05/11 08:36:07;;;;;;;12.52;7.38;;;15.90;99.90;;;;;;5037108;28;20029;-72
2022/05/11 08:38:37;;;;;;;12.65;8.30;;;15.90;99.90;;;;;;5035258;28;20548;-72
2022/05/11 08:41:33;;;;;;;11.13;8.38;;;16.00;99.90;;;;;;5032321;28;20466;-72
2022/05/11 08:44:16;;;;;;;11.18;8.30;;;16.00;99.90;;;;;;5034058;28;20125;-71
2022/05/11 08:46:45;;;;;;;10.23;7.63;;;16.10;99.90;;;;;;5009058;28;20029;-72
2022/05/11 08:49:26;;;;;;;11.70;8.23;;;16.10;99.90;;;;;;5025645;28;20036;-72
2022/05/11 08:52:04;;;;;;;16.00;8.85;;;16.10;99.90;;;;;;5033604;28;20405;-72
2022/05/11 08:54:56;;;;;;;8.98;7.45;;;16.10;99.90;;;;;;5015180;28;20048;-71
2022/05/11 08:57:25;;;;;;;14.25;7.75;;;16.10;99.90;;;;;;4996869;28;20140;-70
2022/05/11 08:59:59;;;;;;;11.35;7.75;;;16.20;99.90;;;;;;5033932;28;20029;-71
2022/05/11 09:02:27;;;;;;;11.38;8.40;;;16.40;99.90;;;;;;4991534;28;20043;-70
2022/05/11 09:04:58;;;;;;;11.07;8.13;;;16.40;99.90;;;;;;5031518;28;20017;-71
2022/05/11 09:07:27;;;;;;;9.70;7.32;;;16.50;99.90;;;;;;5008983;28;20029;-71
2022/05/11 09:09:54;;;;;;;17.80;8.82;;;16.60;99.90;;;;;;5031553;28;20032;-71
2022/05/11 09:12:20;;;;;;;13.25;6.88;;;16.90;99.90;;;;;;5017140;28;20037;-71
2022/05/11 09:14:55;;;;;;;10.40;6.63;;;17.20;99.90;;;;;;5012894;28;20442;-71
2022/05/11 09:17:31;;;;;;;12.32;7.70;;;17.30;99.90;;;;;;5033234;28;20034;-71
2022/05/11 09:20:04;;;;;;;10.52;7.32;;;17.40;99.90;;;;;;5032049;28;20028;-71
2022/05/11 09:22:31;;;;;;;14.30;8.80;;;17.40;99.90;;;;;;5022957;28;20029;-72
2022/05/11 09:25:01;;;;;;;10.18;7.38;;;17.50;99.90;;;;;;5014318;28;20060;-71
2022/05/11 09:27:30;;;;;;;11.25;7.35;;;17.70;99.90;;;;;;5028583;28;20040;-71
2022/05/11 09:29:59;;;;;;;8.88;6.45;;;18.00;99.90;;;;;;5000117;28;20106;-74
2022/05/11 09:32:44;;;;;;;7.22;6.40;;;18.20;99.90;;;;;;5006910;28;20025;-74
2022/05/11 09:35:36;;;;;;;10.45;7.30;;;18.40;99.90;;;;;;5013932;28;20021;-75
2022/05/11 09:38:17;;;;;;;10.13;7.07;;;18.50;99.90;;;;;;5034536;28;20107;-74
2022/05/11 09:40:58;;;;;;;12.13;7.03;;;18.50;99.90;;;;;;5033338;28;20037;-71
2022/05/11 09:43:30;;;;;;;8.50;6.57;;;18.60;99.90;;;;;;5030755;28;20041;-71
2022/05/11 09:45:56;;;;;;;14.25;8.50;;;18.60;99.90;;;;;;5029369;28;20071;-72
2022/05/11 09:48:32;;;;;;;10.60;7.03;;;18.70;99.90;;;;;;5012201;28;20061;-71
2022/05/11 09:51:38;;;;;;;7.72;5.80;;;18.70;99.90;;;;;;5016483;28;20026;-71
2022/05/11 09:54:24;;;;;;;8.75;6.15;;;18.70;99.90;;;;;;5002388;28;20044;-71
2022/05/11 09:56:57;;;;;;;7.10;5.10;;;18.80;99.90;;;;;;5035701;28;20028;-71
2022/05/11 09:59:37;;;;;;;8.10;6.03;;;18.90;99.90;;;;;;5015298;28;20025;-71
2022/05/11 10:02:22;;;;;;;7.93;5.60;;;19.10;99.90;;;;;;5013144;28;20029;-71
2022/05/11 10:05:07;;;;;;;8.18;5.78;;;19.30;99.90;;;;;;5010703;28;20033;-72
2022/05/11 10:07:37;;;;;;;6.63;5.30;;;19.20;99.90;;;;;;5014471;28;20021;-71
2022/05/11 10:10:10;;;;;;;9.77;5.38;;;19.20;99.90;;;;;;5029089;28;20029;-72
2022/05/11 10:12:39;;;;;;;5.85;3.95;;;19.30;99.90;;;;;;5010723;28;20021;-71
2022/05/11 10:24:12;;;;;;;7.95;4.93;;;19.70;99.90;;;;;;5026224;28;20022;-77
2022/05/11 10:26:46;;;;;;;6.28;4.55;;;19.80;99.90;;;;;;5024679;28;20105;-75
2022/05/11 10:29:38;;;;;;;8.52;4.75;;;19.80;99.90;;;;;;5021501;28;20042;-77
2022/05/11 10:32:25;;;;;;;8.80;4.30;;;19.90;99.90;;;;;;5038610;28;20134;-76
2022/05/11 10:35:14;;;;;;;5.95;4.05;;;20.00;99.70;;;;;;5025370;28;20036;-75
2022/05/11 10:38:18;;;;;;;7.35;4.45;;;20.00;99.80;;;;;;5037947;28;20036;-74
2022/05/11 10:40:53;;;;;;;8.57;4.75;;;19.90;99.90;;;;;;4943967;28;20447;-75
2022/05/11 10:43:36;;;;;;;9.73;4.57;;;19.90;99.90;;;;;;4958081;28;20040;-75
2022/05/11 10:46:12;;;;;;;6.72;4.63;;;19.90;99.90;;;;;;4953483;28;20671;-73
2022/05/11 10:48:50;;;;;;;6.72;4.78;;;19.80;99.70;;;;;;4952743;28;20171;-75
2022/05/11 10:51:36;;;;;;;12.15;5.63;;;19.90;99.90;;;;;;4935092;28;20084;-75
2022/05/11 10:54:38;;;;;;;8.48;4.70;;;19.80;99.50;;;;;;4935929;28;20536;-75
2022/05/11 10:57:25;;;;;;;7.35;4.60;;;19.90;99.90;;;;;;4935982;28;20031;-75
2022/05/11 11:00:03;;;;;;;7.75;5.57;;;20.20;99.90;;;;;;4941051;28;20105;-75
2022/05/11 11:03:02;;;;;;;10.63;5.15;;;20.50;99.10;;;;;;4957471;28;20571;-75
2022/05/11 11:05:39;;;;;;;7.28;4.93;;;20.90;98.20;;;;;;4939921;28;20114;-77
2022/05/11 11:08:33;;;;;;;8.32;5.88;;;21.10;97.70;;;;;;4955151;28;20597;-75
2022/05/11 11:11:14;;;;;;;9.20;4.85;;;21.30;97.20;;;;;;4960631;28;20123;-77
2022/05/11 11:13:59;;;;;;;8.00;4.85;;;21.60;96.90;;;;;;4958284;28;20031;-77
2022/05/11 11:16:33;;;;;;;11.88;5.78;;;21.60;96.90;;;;;;4941290;28;20501;-75
2022/05/11 11:18:59;;;;;;;9.02;4.88;;;22.40;95.80;;;;;;4995852;28;20041;-78
2022/05/11 11:21:26;;;;;;;5.88;4.35;;;22.90;95.50;;;;;;5000340;28;20037;-76
2022/05/11 11:24:24;;;;;;;8.57;5.32;;;23.80;94.00;;;;;;4996602;28;20034;-74
2022/05/11 11:26:57;;;;;;;6.75;4.65;;;23.60;92.50;;;;;;4973830;28;20156;-73
2022/05/11 11:29:38;;;;;;;7.13;3.90;;;23.10;93.00;;;;;;4992797;28;20040;-75
2022/05/11 11:32:22;;;;;;;4.65;4.13;;;22.60;93.20;;;;;;4992505;28;20113;-74
2022/05/11 11:34:51;;;;;;;5.40;4.28;;;22.10;93.60;;;;;;5015566;28;20029;-74
2022/05/11 11:37:32;;;;;;;5.22;3.38;;;22.70;94.80;;;;;;5015279;28;20455;-74
2022/05/11 11:40:14;;;;;;;4.80;3.22;;;24.40;92.40;;;;;;5015410;28;20026;-75
2022/05/11 11:42:40;;;;;;;8.50;4.88;;;25.80;91.50;;;;;;5001762;28;20090;-75
2022/05/11 11:45:29;;;;;;;4.13;2.80;;;27.40;81.50;;;;;;5014753;28;20036;-76
2022/05/11 11:48:18;;;;;;;5.53;3.00;;;28.40;79.40;;;;;;4993325;28;20472;-76
2022/05/11 11:50:58;;;;;;;5.43;3.10;;;29.30;73.00;;;;;;4999288;28;20029;-75
2022/05/11 11:53:33;;;;;;;7.55;3.60;;;29.70;69.60;;;;;;5031351;28;20021;-77
2022/05/11 11:56:33;;;;;;;4.50;3.38;;;29.60;66.80;;;;;;5011554;28;20123;-75
2022/05/11 11:59:11;;;;;;;5.40;3.27;;;29.40;65.80;;;;;;4987480;28;20116;-78
2022/05/11 12:01:46;;;;;;;6.55;3.30;;;29.40;66.00;;;;;;5014492;28;20033;-76
2022/05/11 12:04:38;;;;;;;8.15;3.85;;;29.50;64.90;;;;;;5000438;28;20056;-74
2022/05/11 12:15:35;;;;;;;5.43;4.05;;;30.50;59.70;;;;;;5019487;28;20519;-76
2022/05/11 12:18:26;;;;;;;8.27;3.80;;;30.30;56.50;;;;;;5021688;28;20037;-76
2022/05/11 12:20:54;;;;;;;6.28;3.63;;;30.30;57.30;;;;;;5015268;28;20049;-75
2022/05/11 12:23:34;;;;;;;4.50;2.97;;;30.20;56.40;;;;;;5020788;28;20505;-76
2022/05/11 12:26:10;;;;;;;4.28;2.78;;;30.30;56.90;;;;;;5037874;28;20067;-78
2022/05/11 12:28:44;;;;;;;9.27;3.30;;;30.80;56.20;;;;;;5031930;28;20040;-74
2022/05/11 12:31:31;;;;;;;4.55;3.15;;;30.90;55.30;;;;;;5017240;28;20040;-76
2022/05/11 12:33:57;;;;;;;5.35;3.13;;;31.40;54.60;;;;;;5017140;28;20029;-76
2022/05/11 12:36:38;;;;;;;7.90;3.90;;;31.70;53.10;;;;;;5035531;28;20163;-75
2022/05/11 12:39:04;;;;;;;;;;;31.80;51.50;;;;;;5022795;28;20021;-75
2022/05/11 12:41:31;;;;;;;7.78;3.70;;;32.00;51.50;;;;;;5035160;28;19908;-74
2022/05/11 12:44:03;;;;;;;7.57;3.08;;;32.00;50.00;;;;;;5017970;28;20040;-76
2022/05/11 12:46:31;;;;;;;5.88;2.60;;;32.50;50.80;;;;;;5010081;28;20029;-73
2022/05/11 12:49:00;;;;;;;5.68;3.53;;;33.00;50.60;;;;;;5034760;28;20054;-73
2022/05/11 12:51:40;;;;;;;7.32;2.80;;;33.00;48.00;;;;;;5012649;28;20028;-76
2022/05/11 12:54:08;;;;;;;;;;;33.40;47.90;;;;;;5014711;28;20025;-72
2022/05/11 12:56:38;;;;;;;3.97;2.28;;;33.10;47.20;;;;;;5026901;28;19917;-77
2022/05/11 12:59:25;;;;;;;9.00;3.28;;;32.80;47.70;;;;;;4980836;28;20120;-79
2022/05/11 13:02:11;;;;;;;6.55;3.78;;;32.60;46.80;;;;;;5008508;28;20024;-76
2022/05/11 13:04:51;;;;;;;4.78;2.88;;;33.00;45.90;;;;;;5011527;28;20041;-76
2022/05/11 13:07:43;;;;;;;11.05;2.83;;;33.10;45.50;;;;;;5032923;28;20109;-76
2022/05/11 13:10:14;;;;;;;6.65;2.50;;;33.40;45.20;;;;;;4970264;28;20052;-77
2022/05/11 13:12:42;;;;;;;3.17;2.28;;;34.00;44.20;;;;;;5007904;28;20528;-79
2022/05/11 13:15:08;;;;;;;3.00;1.88;;;34.40;45.10;;;;;;5012838;28;20036;-77
2022/05/11 13:17:44;;;;;;;5.65;2.38;;;34.40;43.60;;;;;;5038979;28;20599;-78
2022/05/11 13:20:22;;;;;;;4.45;2.03;;;33.70;44.30;;;;;;5004903;28;20107;-78
2022/05/11 13:22:56;;;;;;;6.13;2.25;;;34.10;42.50;;;;;;5031167;28;20060;-78
2022/05/11 13:25:48;;;;;;;6.35;2.78;;;34.50;43.10;;;;;;5022094;28;20052;-79
2022/05/11 13:28:29;;;;;;;5.35;2.30;;;35.20;42.40;;;;;;5032841;28;20033;-78
2022/05/11 13:30:56;;;;;;;;;;;35.30;41.30;;;;;;5030464;28;20500;-76
2022/05/11 13:33:40;;;;;;;7.20;2.47;;;35.10;40.50;;;;;;5031535;28;19937;-77
2022/05/11 13:36:11;;;;;;;8.95;2.85;;;34.60;40.50;;;;;;5001490;28;20052;-76
2022/05/11 13:38:47;;;;;;;5.90;2.50;;;35.20;39.30;;;;;;5036005;28;20108;-77
2022/05/11 13:41:18;;;;;;;4.07;2.15;;;35.80;40.00;;;;;;5011802;28;20025;-77